sensor_id;sensor_type;location;lat;lon;timestamp;temperature;humidity
4677;DHT22;2352;48.180;11.478;2024-03-07T00:00:27;5.80;76.10
4677;DHT22;2352;48.180;11.478;2024-03-07T00:05:30;5.80;76.30
4677;DHT22;2352;48.180;11.478;2024-03-07T00:10:33;5.70;76.80
4677;DHT22;2352;48.180;11.478;2024-03-07T00:15:39;6.00;75.70
4677;DHT22;2352;48.180;11.478;2024-03-07T00:20:43;5.90;76.10
4677;DHT22;2352;48.180;11.478;2024-03-07T00:25:47;6.10;75.40
4677;DHT22;2352;48.180;11.478;2024-03-07T00:30:52;6.00;75.60
4677;DHT22;2352;48.180;11.478;2024-03-07T00:35:57;6.00;75.90
4677;DHT22;2352;48.180;11.478;2024-03-07T00:41:00;6.00;75.90
4677;DHT22;2352;48.180;11.478;2024-03-07T00:46:04;5.80;76.30
4677;DHT22;2352;48.180;11.478;2024-03-07T00:51:08;5.80;76.10
4677;DHT22;2352;48.180;11.478;2024-03-07T00:56:11;5.80;76.60
4677;DHT22;2352;48.180;11.478;2024-03-07T01:01:16;5.70;76.70
4677;DHT22;2352;48.180;11.478;2024-03-07T01:06:20;5.70;76.70
4677;DHT22;2352;48.180;11.478;2024-03-07T01:11:24;5.80;76.70
4677;DHT22;2352;48.180;11.478;2024-03-07T01:16:28;5.70;76.80
4677;DHT22;2352;48.180;11.478;2024-03-07T01:21:32;5.90;76.30
4677;DHT22;2352;48.180;11.478;2024-03-07T01:26:39;5.70;77.10
4677;DHT22;2352;48.180;11.478;2024-03-07T01:31:43;5.80;76.80
4677;DHT22;2352;48.180;11.478;2024-03-07T01:36:46;5.70;76.90
4677;DHT22;2352;48.180;11.478;2024-03-07T01:41:49;5.60;77.30
4677;DHT22;2352;48.180;11.478;2024-03-07T01:46:54;5.80;76.90
4677;DHT22;2352;48.180;11.478;2024-03-07T01:51:57;5.80;76.70
4677;DHT22;2352;48.180;11.478;2024-03-07T01:57:01;6.00;76.20
4677;DHT22;2352;48.180;11.478;2024-03-07T02:02:06;5.90;76.30
4677;DHT22;2352;48.180;11.478;2024-03-07T02:07:09;5.80;76.60
4677;DHT22;2352;48.180;11.478;2024-03-07T02:12:13;5.80;76.70
4677;DHT22;2352;48.180;11.478;2024-03-07T02:17:17;6.00;76.10
4677;DHT22;2352;48.180;11.478;2024-03-07T02:22:23;5.90;76.20
4677;DHT22;2352;48.180;11.478;2024-03-07T02:27:28;5.90;76.10
4677;DHT22;2352;48.180;11.478;2024-03-07T02:32:31;5.70;77.10
4677;DHT22;2352;48.180;11.478;2024-03-07T02:37:36;5.80;76.60
4677;DHT22;2352;48.180;11.478;2024-03-07T02:42:39;6.00;76.00
4677;DHT22;2352;48.180;11.478;2024-03-07T02:47:42;5.90;76.70
4677;DHT22;2352;48.180;11.478;2024-03-07T02:52:47;5.70;77.10
4677;DHT22;2352;48.180;11.478;2024-03-07T02:57:51;5.60;77.30
4677;DHT22;2352;48.180;11.478;2024-03-07T03:02:54;5.70;77.20
4677;DHT22;2352;48.180;11.478;2024-03-07T03:07:58;5.80;77.00
4677;DHT22;2352;48.180;11.478;2024-03-07T03:13:02;5.90;76.70
4677;DHT22;2352;48.180;11.478;2024-03-07T03:18:05;5.90;76.30
4677;DHT22;2352;48.180;11.478;2024-03-07T03:23:10;5.80;76.50
4677;DHT22;2352;48.180;11.478;2024-03-07T03:28:22;5.80;76.70
4677;DHT22;2352;48.180;11.478;2024-03-07T03:33:25;5.80;76.50
4677;DHT22;2352;48.180;11.478;2024-03-07T03:38:30;5.80;76.80
4677;DHT22;2352;48.180;11.478;2024-03-07T03:43:33;5.70;76.80
4677;DHT22;2352;48.180;11.478;2024-03-07T03:48:36;5.70;76.60
4677;DHT22;2352;48.180;11.478;2024-03-07T03:53:40;5.60;76.90
4677;DHT22;2352;48.180;11.478;2024-03-07T03:58:43;5.70;76.70
4677;DHT22;2352;48.180;11.478;2024-03-07T04:03:46;5.70;76.50
4677;DHT22;2352;48.180;11.478;2024-03-07T04:08:51;5.70;76.50
4677;DHT22;2352;48.180;11.478;2024-03-07T04:13:56;5.70;76.60
4677;DHT22;2352;48.180;11.478;2024-03-07T04:18:59;5.70;76.20
4677;DHT22;2352;48.180;11.478;2024-03-07T04:24:04;5.60;76.30
4677;DHT22;2352;48.180;11.478;2024-03-07T04:29:07;5.70;75.50
4677;DHT22;2352;48.180;11.478;2024-03-07T04:34:10;5.60;74.40
4677;DHT22;2352;48.180;11.478;2024-03-07T04:39:14;5.70;75.10
4677;DHT22;2352;48.180;11.478;2024-03-07T04:44:26;5.70;75.00
4677;DHT22;2352;48.180;11.478;2024-03-07T04:49:31;5.70;73.90
4677;DHT22;2352;48.180;11.478;2024-03-07T04:54:35;5.40;73.50
4677;DHT22;2352;48.180;11.478;2024-03-07T04:59:38;5.40;73.80
4677;DHT22;2352;48.180;11.478;2024-03-07T05:04:42;5.40;74.40
4677;DHT22;2352;48.180;11.478;2024-03-07T05:09:46;5.40;74.60
4677;DHT22;2352;48.180;11.478;2024-03-07T05:14:50;5.30;74.10
4677;DHT22;2352;48.180;11.478;2024-03-07T05:19:53;5.40;74.30
4677;DHT22;2352;48.180;11.478;2024-03-07T05:24:57;5.20;74.00
4677;DHT22;2352;48.180;11.478;2024-03-07T05:30:01;5.00;74.90
4677;DHT22;2352;48.180;11.478;2024-03-07T05:35:08;5.10;73.60
4677;DHT22;2352;48.180;11.478;2024-03-07T05:40:14;4.90;74.30
4677;DHT22;2352;48.180;11.478;2024-03-07T05:45:17;5.10;73.30
4677;DHT22;2352;48.180;11.478;2024-03-07T05:50:20;5.10;73.30
4677;DHT22;2352;48.180;11.478;2024-03-07T05:55:25;5.20;73.70
4677;DHT22;2352;48.180;11.478;2024-03-07T06:00:28;5.00;73.50
4677;DHT22;2352;48.180;11.478;2024-03-07T06:05:31;5.10;72.70
4677;DHT22;2352;48.180;11.478;2024-03-07T06:10:35;5.00;72.40
4677;DHT22;2352;48.180;11.478;2024-03-07T06:15:38;4.90;72.70
4677;DHT22;2352;48.180;11.478;2024-03-07T06:20:42;4.90;73.30
4677;DHT22;2352;48.180;11.478;2024-03-07T06:25:46;4.80;72.40
4677;DHT22;2352;48.180;11.478;2024-03-07T06:30:52;4.60;73.10
4677;DHT22;2352;48.180;11.478;2024-03-07T06:35:55;4.60;73.10
4677;DHT22;2352;48.180;11.478;2024-03-07T06:41:00;4.80;73.10
4677;DHT22;2352;48.180;11.478;2024-03-07T06:46:03;4.80;73.20
4677;DHT22;2352;48.180;11.478;2024-03-07T06:51:06;4.90;72.50
4677;DHT22;2352;48.180;11.478;2024-03-07T06:56:11;4.90;72.30
4677;DHT22;2352;48.180;11.478;2024-03-07T07:01:14;4.90;72.70
4677;DHT22;2352;48.180;11.478;2024-03-07T07:06:18;5.00;72.30
4677;DHT22;2352;48.180;11.478;2024-03-07T07:11:22;5.00;72.10
4677;DHT22;2352;48.180;11.478;2024-03-07T07:16:26;5.00;72.10
4677;DHT22;2352;48.180;11.478;2024-03-07T07:21:31;5.10;73.10
4677;DHT22;2352;48.180;11.478;2024-03-07T07:26:35;5.10;72.50
4677;DHT22;2352;48.180;11.478;2024-03-07T07:31:39;5.10;72.50
4677;DHT22;2352;48.180;11.478;2024-03-07T07:36:42;5.20;71.90
4677;DHT22;2352;48.180;11.478;2024-03-07T07:41:46;5.10;72.30
4677;DHT22;2352;48.180;11.478;2024-03-07T07:46:49;5.10;72.30
4677;DHT22;2352;48.180;11.478;2024-03-07T07:51:52;5.30;71.90
4677;DHT22;2352;48.180;11.478;2024-03-07T07:56:56;5.30;72.40
4677;DHT22;2352;48.180;11.478;2024-03-07T08:01:59;5.50;72.30
4677;DHT22;2352;48.180;11.478;2024-03-07T08:07:03;5.50;72.30
4677;DHT22;2352;48.180;11.478;2024-03-07T08:12:08;5.10;72.00
4677;DHT22;2352;48.180;11.478;2024-03-07T08:17:11;5.30;73.00
4677;DHT22;2352;48.180;11.478;2024-03-07T08:22:14;5.40;72.30
4677;DHT22;2352;48.180;11.478;2024-03-07T08:27:19;5.60;72.10
4677;DHT22;2352;48.180;11.478;2024-03-07T08:32:22;5.60;72.20
4677;DHT22;2352;48.180;11.478;2024-03-07T08:37:25;5.70;71.90
4677;DHT22;2352;48.180;11.478;2024-03-07T08:42:29;5.80;71.60
4677;DHT22;2352;48.180;11.478;2024-03-07T08:47:34;5.70;72.20
4677;DHT22;2352;48.180;11.478;2024-03-07T08:52:37;5.60;72.40
4677;DHT22;2352;48.180;11.478;2024-03-07T08:57:43;5.70;72.20
4677;DHT22;2352;48.180;11.478;2024-03-07T09:02:48;6.00;72.30
4677;DHT22;2352;48.180;11.478;2024-03-07T09:07:54;6.00;72.10
4677;DHT22;2352;48.180;11.478;2024-03-07T09:12:59;6.10;72.30
4677;DHT22;2352;48.180;11.478;2024-03-07T09:18:03;6.10;72.00
4677;DHT22;2352;48.180;11.478;2024-03-07T09:23:06;6.30;72.10
4677;DHT22;2352;48.180;11.478;2024-03-07T09:28:10;6.20;72.00
4677;DHT22;2352;48.180;11.478;2024-03-07T09:33:14;6.40;71.80
4677;DHT22;2352;48.180;11.478;2024-03-07T09:38:21;6.50;71.40
4677;DHT22;2352;48.180;11.478;2024-03-07T09:43:26;6.50;71.70
4677;DHT22;2352;48.180;11.478;2024-03-07T09:48:31;6.40;71.40
4677;DHT22;2352;48.180;11.478;2024-03-07T09:53:37;6.60;71.80
4677;DHT22;2352;48.180;11.478;2024-03-07T09:58:42;6.80;71.20
4677;DHT22;2352;48.180;11.478;2024-03-07T10:03:47;7.10;71.50
4677;DHT22;2352;48.180;11.478;2024-03-07T10:08:50;7.10;70.70
4677;DHT22;2352;48.180;11.478;2024-03-07T10:13:55;7.30;70.60
4677;DHT22;2352;48.180;11.478;2024-03-07T10:18:58;7.40;70.40
4677;DHT22;2352;48.180;11.478;2024-03-07T10:24:05;7.30;69.50
4677;DHT22;2352;48.180;11.478;2024-03-07T10:29:11;7.40;69.50
4677;DHT22;2352;48.180;11.478;2024-03-07T10:34:14;7.20;69.70
4677;DHT22;2352;48.180;11.478;2024-03-07T10:39:18;7.20;69.10
4677;DHT22;2352;48.180;11.478;2024-03-07T10:44:25;7.40;69.80
4677;DHT22;2352;48.180;11.478;2024-03-07T10:49:33;7.70;70.60
4677;DHT22;2352;48.180;11.478;2024-03-07T10:54:45;8.20;69.50
4677;DHT22;2352;48.180;11.478;2024-03-07T10:59:59;8.70;68.40
4677;DHT22;2352;48.180;11.478;2024-03-07T11:05:13;9.40;67.50
4677;DHT22;2352;48.180;11.478;2024-03-07T11:10:19;9.80;64.50
4677;DHT22;2352;48.180;11.478;2024-03-07T11:15:25;9.70;63.70
4677;DHT22;2352;48.180;11.478;2024-03-07T11:20:35;9.40;64.80
4677;DHT22;2352;48.180;11.478;2024-03-07T11:25:38;8.90;64.80
4677;DHT22;2352;48.180;11.478;2024-03-07T11:30:42;8.90;65.40
4677;DHT22;2352;48.180;11.478;2024-03-07T11:35:48;8.60;65.40
4677;DHT22;2352;48.180;11.478;2024-03-07T11:40:51;8.80;64.90
4677;DHT22;2352;48.180;11.478;2024-03-07T11:45:59;8.90;65.50
4677;DHT22;2352;48.180;11.478;2024-03-07T11:51:02;8.90;65.30
4677;DHT22;2352;48.180;11.478;2024-03-07T11:56:06;9.30;64.30
4677;DHT22;2352;48.180;11.478;2024-03-07T12:01:12;9.50;64.20
4677;DHT22;2352;48.180;11.478;2024-03-07T12:06:18;9.60;63.60
4677;DHT22;2352;48.180;11.478;2024-03-07T12:11:22;9.70;62.90
4677;DHT22;2352;48.180;11.478;2024-03-07T12:16:29;9.50;63.30
4677;DHT22;2352;48.180;11.478;2024-03-07T12:21:33;9.50;63.90
4677;DHT22;2352;48.180;11.478;2024-03-07T12:26:37;9.50;63.10
4677;DHT22;2352;48.180;11.478;2024-03-07T12:31:41;9.40;63.30
4677;DHT22;2352;48.180;11.478;2024-03-07T12:36:44;9.40;63.10
4677;DHT22;2352;48.180;11.478;2024-03-07T12:41:48;9.40;63.50
4677;DHT22;2352;48.180;11.478;2024-03-07T12:46:56;9.40;63.00
4677;DHT22;2352;48.180;11.478;2024-03-07T12:51:59;9.30;62.20
4677;DHT22;2352;48.180;11.478;2024-03-07T12:57:02;9.40;62.90
4677;DHT22;2352;48.180;11.478;2024-03-07T13:02:09;9.70;62.60
4677;DHT22;2352;48.180;11.478;2024-03-07T13:07:12;9.50;61.70
4677;DHT22;2352;48.180;11.478;2024-03-07T13:12:17;9.30;61.60
4677;DHT22;2352;48.180;11.478;2024-03-07T13:17:22;9.40;62.90
4677;DHT22;2352;48.180;11.478;2024-03-07T13:22:25;9.30;62.10
4677;DHT22;2352;48.180;11.478;2024-03-07T13:27:29;9.40;63.30
4677;DHT22;2352;48.180;11.478;2024-03-07T13:32:33;9.40;62.90
4677;DHT22;2352;48.180;11.478;2024-03-07T13:37:36;9.50;62.20
4677;DHT22;2352;48.180;11.478;2024-03-07T13:42:39;9.40;61.50
4677;DHT22;2352;48.180;11.478;2024-03-07T13:47:44;9.40;63.80
4677;DHT22;2352;48.180;11.478;2024-03-07T13:52:48;9.40;61.50
4677;DHT22;2352;48.180;11.478;2024-03-07T13:58:33;9.60;61.10
4677;DHT22;2352;48.180;11.478;2024-03-07T14:09:31;9.40;62.50
4677;DHT22;2352;48.180;11.478;2024-03-07T14:20:50;9.40;60.50
4677;DHT22;2352;48.180;11.478;2024-03-07T14:26:10;9.50;61.40
4677;DHT22;2352;48.180;11.478;2024-03-07T14:31:16;9.40;62.00
4677;DHT22;2352;48.180;11.478;2024-03-07T14:36:33;9.50;61.70
4677;DHT22;2352;48.180;11.478;2024-03-07T14:41:44;9.40;62.30
4677;DHT22;2352;48.180;11.478;2024-03-07T14:46:52;9.40;62.90
4677;DHT22;2352;48.180;11.478;2024-03-07T14:51:58;8.60;63.10
4677;DHT22;2352;48.180;11.478;2024-03-07T14:57:03;8.80;63.70
4677;DHT22;2352;48.180;11.478;2024-03-07T15:02:07;8.90;63.50
4677;DHT22;2352;48.180;11.478;2024-03-07T15:07:14;8.40;63.50
4677;DHT22;2352;48.180;11.478;2024-03-07T15:12:17;8.50;64.30
4677;DHT22;2352;48.180;11.478;2024-03-07T15:17:20;8.40;63.40
4677;DHT22;2352;48.180;11.478;2024-03-07T15:22:27;8.50;64.50
4677;DHT22;2352;48.180;11.478;2024-03-07T15:27:30;8.60;64.20
4677;DHT22;2352;48.180;11.478;2024-03-07T15:32:33;8.40;63.60
4677;DHT22;2352;48.180;11.478;2024-03-07T15:37:39;8.40;64.10
4677;DHT22;2352;48.180;11.478;2024-03-07T15:42:43;8.50;64.00
4677;DHT22;2352;48.180;11.478;2024-03-07T15:47:49;8.40;63.50
4677;DHT22;2352;48.180;11.478;2024-03-07T15:52:53;8.40;64.00
4677;DHT22;2352;48.180;11.478;2024-03-07T15:57:59;8.90;70.60
4677;DHT22;2352;48.180;11.478;2024-03-07T16:03:06;9.50;69.20
4677;DHT22;2352;48.180;11.478;2024-03-07T16:08:14;9.10;63.20
4677;DHT22;2352;48.180;11.478;2024-03-07T16:13:20;8.70;63.30
4677;DHT22;2352;48.180;11.478;2024-03-07T16:18:23;8.70;62.30
4677;DHT22;2352;48.180;11.478;2024-03-07T16:23:29;8.40;63.30
4677;DHT22;2352;48.180;11.478;2024-03-07T16:28:32;8.40;62.90
4677;DHT22;2352;48.180;11.478;2024-03-07T16:33:35;8.40;63.00
4677;DHT22;2352;48.180;11.478;2024-03-07T16:38:39;8.20;63.00
4677;DHT22;2352;48.180;11.478;2024-03-07T16:43:42;8.40;63.30
4677;DHT22;2352;48.180;11.478;2024-03-07T16:48:45;8.30;62.40
4677;DHT22;2352;48.180;11.478;2024-03-07T16:53:50;8.10;62.50
4677;DHT22;2352;48.180;11.478;2024-03-07T16:58:53;8.10;63.10
4677;DHT22;2352;48.180;11.478;2024-03-07T17:03:56;8.10;61.70
4677;DHT22;2352;48.180;11.478;2024-03-07T17:09:00;8.00;62.50
4677;DHT22;2352;48.180;11.478;2024-03-07T17:14:03;8.10;62.30
4677;DHT22;2352;48.180;11.478;2024-03-07T17:19:07;7.90;63.20
4677;DHT22;2352;48.180;11.478;2024-03-07T17:24:13;7.90;62.50
4677;DHT22;2352;48.180;11.478;2024-03-07T17:29:22;7.90;61.60
4677;DHT22;2352;48.180;11.478;2024-03-07T17:34:25;7.70;60.60
4677;DHT22;2352;48.180;11.478;2024-03-07T17:39:30;7.40;61.30
4677;DHT22;2352;48.180;11.478;2024-03-07T17:44:36;7.30;62.00
4677;DHT22;2352;48.180;11.478;2024-03-07T17:49:39;7.40;63.30
4677;DHT22;2352;48.180;11.478;2024-03-07T17:54:44;7.30;63.30
4677;DHT22;2352;48.180;11.478;2024-03-07T17:59:49;7.10;63.70
4677;DHT22;2352;48.180;11.478;2024-03-07T18:04:52;7.10;63.70
4677;DHT22;2352;48.180;11.478;2024-03-07T18:09:56;7.20;64.00
4677;DHT22;2352;48.180;11.478;2024-03-07T18:14:59;7.10;64.10
4677;DHT22;2352;48.180;11.478;2024-03-07T18:20:21;7.10;64.10
4677;DHT22;2352;48.180;11.478;2024-03-07T18:25:29;6.90;64.40
4677;DHT22;2352;48.180;11.478;2024-03-07T18:30:33;6.90;64.40
4677;DHT22;2352;48.180;11.478;2024-03-07T18:35:36;6.80;64.70
4677;DHT22;2352;48.180;11.478;2024-03-07T18:40:41;6.90;64.80
4677;DHT22;2352;48.180;11.478;2024-03-07T18:45:44;6.80;64.70
4677;DHT22;2352;48.180;11.478;2024-03-07T18:50:52;6.60;65.20
4677;DHT22;2352;48.180;11.478;2024-03-07T18:55:57;7.20;70.80
4677;DHT22;2352;48.180;11.478;2024-03-07T19:01:00;7.40;66.60
4677;DHT22;2352;48.180;11.478;2024-03-07T19:06:06;7.00;64.10
4677;DHT22;2352;48.180;11.478;2024-03-07T19:11:12;6.80;63.80
4677;DHT22;2352;48.180;11.478;2024-03-07T19:16:16;6.50;64.60
4677;DHT22;2352;48.180;11.478;2024-03-07T19:21:19;6.50;64.70
4677;DHT22;2352;48.180;11.478;2024-03-07T19:26:24;6.40;64.20
4677;DHT22;2352;48.180;11.478;2024-03-07T19:31:26;6.20;64.40
4677;DHT22;2352;48.180;11.478;2024-03-07T19:36:35;6.10;64.70
4677;DHT22;2352;48.180;11.478;2024-03-07T19:41:41;6.10;65.10
4677;DHT22;2352;48.180;11.478;2024-03-07T19:46:56;6.10;64.90
4677;DHT22;2352;48.180;11.478;2024-03-07T19:51:59;5.90;64.90
4677;DHT22;2352;48.180;11.478;2024-03-07T19:57:13;5.90;65.10
4677;DHT22;2352;48.180;11.478;2024-03-07T20:02:20;5.90;65.00
4677;DHT22;2352;48.180;11.478;2024-03-07T20:07:23;5.90;64.60
4677;DHT22;2352;48.180;11.478;2024-03-07T20:12:27;5.70;64.90
4677;DHT22;2352;48.180;11.478;2024-03-07T20:17:30;5.70;64.90
4677;DHT22;2352;48.180;11.478;2024-03-07T20:22:33;5.50;65.40
4677;DHT22;2352;48.180;11.478;2024-03-07T20:27:39;5.10;66.30
4677;DHT22;2352;48.180;11.478;2024-03-07T20:32:42;5.40;65.80
4677;DHT22;2352;48.180;11.478;2024-03-07T20:37:46;5.60;65.40
4677;DHT22;2352;48.180;11.478;2024-03-07T20:42:51;5.40;65.80
4677;DHT22;2352;48.180;11.478;2024-03-07T20:47:55;5.50;65.60
4677;DHT22;2352;48.180;11.478;2024-03-07T20:53:01;5.40;65.70
4677;DHT22;2352;48.180;11.478;2024-03-07T20:58:08;5.20;66.30
4677;DHT22;2352;48.180;11.478;2024-03-07T21:03:12;5.30;66.60
4677;DHT22;2352;48.180;11.478;2024-03-07T21:08:15;5.20;66.70
4677;DHT22;2352;48.180;11.478;2024-03-07T21:13:20;5.30;66.80
4677;DHT22;2352;48.180;11.478;2024-03-07T21:18:23;5.20;66.70
4677;DHT22;2352;48.180;11.478;2024-03-07T21:23:26;5.00;67.30
4677;DHT22;2352;48.180;11.478;2024-03-07T21:28:30;5.00;67.10
4677;DHT22;2352;48.180;11.478;2024-03-07T21:33:34;5.00;67.40
4677;DHT22;2352;48.180;11.478;2024-03-07T21:38:37;4.90;67.60
4677;DHT22;2352;48.180;11.478;2024-03-07T21:43:41;5.00;67.30
4677;DHT22;2352;48.180;11.478;2024-03-07T21:48:44;4.90;67.40
4677;DHT22;2352;48.180;11.478;2024-03-07T21:53:49;4.90;67.50
4677;DHT22;2352;48.180;11.478;2024-03-07T21:58:54;4.90;67.40
4677;DHT22;2352;48.180;11.478;2024-03-07T22:03:59;4.90;67.30
4677;DHT22;2352;48.180;11.478;2024-03-07T22:09:03;4.80;67.40
4677;DHT22;2352;48.180;11.478;2024-03-07T22:14:07;4.60;67.80
4677;DHT22;2352;48.180;11.478;2024-03-07T22:19:10;4.60;67.50
4677;DHT22;2352;48.180;11.478;2024-03-07T22:24:14;4.50;68.30
4677;DHT22;2352;48.180;11.478;2024-03-07T22:29:18;4.40;68.40
4677;DHT22;2352;48.180;11.478;2024-03-07T22:34:21;4.40;68.40
4677;DHT22;2352;48.180;11.478;2024-03-07T22:39:24;4.40;68.40
4677;DHT22;2352;48.180;11.478;2024-03-07T22:44:29;4.40;68.30
4677;DHT22;2352;48.180;11.478;2024-03-07T22:49:32;4.20;68.50
4677;DHT22;2352;48.180;11.478;2024-03-07T22:54:35;4.00;68.90
4677;DHT22;2352;48.180;11.478;2024-03-07T22:59:42;4.20;68.70
4677;DHT22;2352;48.180;11.478;2024-03-07T23:04:45;4.20;68.60
4677;DHT22;2352;48.180;11.478;2024-03-07T23:09:48;4.00;68.80
4677;DHT22;2352;48.180;11.478;2024-03-07T23:14:52;3.90;69.20
4677;DHT22;2352;48.180;11.478;2024-03-07T23:19:57;4.00;68.90
4677;DHT22;2352;48.180;11.478;2024-03-07T23:25:00;3.90;68.70
4677;DHT22;2352;48.180;11.478;2024-03-07T23:30:06;3.90;68.90
4677;DHT22;2352;48.180;11.478;2024-03-07T23:35:11;3.80;68.80
4677;DHT22;2352;48.180;11.478;2024-03-07T23:40:14;3.90;68.50
4677;DHT22;2352;48.180;11.478;2024-03-07T23:45:19;3.80;68.60
4677;DHT22;2352;48.180;11.478;2024-03-07T23:50:23;3.90;68.40
4677;DHT22;2352;48.180;11.478;2024-03-07T23:55:28;3.70;68.40
